sensor_id;sensor_type;location;lat;lon;timestamp;temperature;humidity
13880;DHT22;7010;48.200;16.332;2023-01-10T00:02:04;6.40;99.90
13880;DHT22;7010;48.200;16.332;2023-01-10T00:04:32;6.50;99.90
13880;DHT22;7010;48.200;16.332;2023-01-10T00:07:02;6.50;99.90
13880;DHT22;7010;48.200;16.332;2023-01-10T00:09:30;6.50;99.90
13880;DHT22;7010;48.200;16.332;2023-01-10T00:11:58;6.60;99.90
13880;DHT22;7010;48.200;16.332;2023-01-10T00:14:44;6.60;99.90
13880;DHT22;7010;48.200;16.332;2023-01-10T00:17:12;6.70;99.90
13880;DHT22;7010;48.200;16.332;2023-01-10T00:19:40;6.70;99.90
13880;DHT22;7010;48.200;16.332;2023-01-10T00:22:10;6.70;99.90
13880;DHT22;7010;48.200;16.332;2023-01-10T00:24:45;6.70;99.90
13880;DHT22;7010;48.200;16.332;2023-01-10T00:27:13;6.70;99.90
13880;DHT22;7010;48.200;16.332;2023-01-10T00:29:47;6.70;99.90
13880;DHT22;7010;48.200;16.332;2023-01-10T00:32:18;6.70;99.90
13880;DHT22;7010;48.200;16.332;2023-01-10T00:34:47;6.70;99.90
13880;DHT22;7010;48.200;16.332;2023-01-10T00:37:17;6.70;99.90
13880;DHT22;7010;48.200;16.332;2023-01-10T00:39:45;6.70;99.90
13880;DHT22;7010;48.200;16.332;2023-01-10T00:42:13;6.70;99.90
13880;DHT22;7010;48.200;16.332;2023-01-10T00:44:59;6.60;99.90
13880;DHT22;7010;48.200;16.332;2023-01-10T00:47:27;6.60;99.90
13880;DHT22;7010;48.200;16.332;2023-01-10T00:49:56;6.60;99.90
13880;DHT22;7010;48.200;16.332;2023-01-10T00:52:25;6.70;99.90
13880;DHT22;7010;48.200;16.332;2023-01-10T00:54:54;6.70;99.90
13880;DHT22;7010;48.200;16.332;2023-01-10T00:57:22;6.70;99.90
13880;DHT22;7010;48.200;16.332;2023-01-10T00:59:50;6.70;99.90
13880;DHT22;7010;48.200;16.332;2023-01-10T01:02:18;6.60;99.90
13880;DHT22;7010;48.200;16.332;2023-01-10T01:04:47;6.60;99.90
13880;DHT22;7010;48.200;16.332;2023-01-10T01:07:15;6.60;99.90
13880;DHT22;7010;48.200;16.332;2023-01-10T01:09:45;6.60;99.90
13880;DHT22;7010;48.200;16.332;2023-01-10T01:12:31;6.50;99.90
13880;DHT22;7010;48.200;16.332;2023-01-10T01:14:59;6.50;99.90
13880;DHT22;7010;48.200;16.332;2023-01-10T01:17:27;6.40;99.90
13880;DHT22;7010;48.200;16.332;2023-01-10T01:19:55;6.40;99.90
13880;DHT22;7010;48.200;16.332;2023-01-10T01:22:24;6.40;99.90
13880;DHT22;7010;48.200;16.332;2023-01-10T01:24:53;6.30;99.90
13880;DHT22;7010;48.200;16.332;2023-01-10T01:27:22;6.30;99.90
13880;DHT22;7010;48.200;16.332;2023-01-10T01:29:50;6.30;99.90
13880;DHT22;7010;48.200;16.332;2023-01-10T01:32:18;6.20;99.90
13880;DHT22;7010;48.200;16.332;2023-01-10T01:34:47;6.20;99.90
13880;DHT22;7010;48.200;16.332;2023-01-10T01:37:16;6.20;99.90
13880;DHT22;7010;48.200;16.332;2023-01-10T01:39:45;6.20;99.90
13880;DHT22;7010;48.200;16.332;2023-01-10T01:42:23;6.10;99.90
13880;DHT22;7010;48.200;16.332;2023-01-10T01:45:25;6.20;99.90
13880;DHT22;7010;48.200;16.332;2023-01-10T01:48:00;6.10;99.90
13880;DHT22;7010;48.200;16.332;2023-01-10T01:50:33;6.10;99.90
13880;DHT22;7010;48.200;16.332;2023-01-10T01:53:05;6.10;99.90
13880;DHT22;7010;48.200;16.332;2023-01-10T01:55:37;6.10;99.90
13880;DHT22;7010;48.200;16.332;2023-01-10T01:58:11;6.10;99.90
13880;DHT22;7010;48.200;16.332;2023-01-10T02:00:40;6.20;99.90
13880;DHT22;7010;48.200;16.332;2023-01-10T02:03:09;6.10;99.90
13880;DHT22;7010;48.200;16.332;2023-01-10T02:05:39;6.10;99.90
13880;DHT22;7010;48.200;16.332;2023-01-10T02:08:07;6.10;99.90
13880;DHT22;7010;48.200;16.332;2023-01-10T02:10:41;6.10;99.90
13880;DHT22;7010;48.200;16.332;2023-01-10T02:13:15;6.10;99.90
13880;DHT22;7010;48.200;16.332;2023-01-10T02:15:45;6.10;99.90
13880;DHT22;7010;48.200;16.332;2023-01-10T02:18:13;6.10;99.90
13880;DHT22;7010;48.200;16.332;2023-01-10T02:20:53;6.20;99.90
13880;DHT22;7010;48.200;16.332;2023-01-10T02:24:05;6.10;99.90
13880;DHT22;7010;48.200;16.332;2023-01-10T02:30:30;6.20;99.90
13880;DHT22;7010;48.200;16.332;2023-01-10T02:33:06;6.10;99.90
13880;DHT22;7010;48.200;16.332;2023-01-10T02:35:54;6.10;99.90
13880;DHT22;7010;48.200;16.332;2023-01-10T02:38:34;6.10;99.90
13880;DHT22;7010;48.200;16.332;2023-01-10T02:41:09;6.10;99.90
13880;DHT22;7010;48.200;16.332;2023-01-10T02:43:45;6.20;99.90
13880;DHT22;7010;48.200;16.332;2023-01-10T02:46:17;6.20;99.90
13880;DHT22;7010;48.200;16.332;2023-01-10T02:48:53;6.10;99.90
13880;DHT22;7010;48.200;16.332;2023-01-10T02:51:23;6.10;99.90
13880;DHT22;7010;48.200;16.332;2023-01-10T02:53:56;6.10;99.90
13880;DHT22;7010;48.200;16.332;2023-01-10T02:59:56;6.10;99.90
13880;DHT22;7010;48.200;16.332;2023-01-10T03:02:36;6.20;99.90
13880;DHT22;7010;48.200;16.332;2023-01-10T03:05:20;6.20;99.90
13880;DHT22;7010;48.200;16.332;2023-01-10T03:07:55;6.20;99.90
13880;DHT22;7010;48.200;16.332;2023-01-10T03:10:29;6.20;99.90
13880;DHT22;7010;48.200;16.332;2023-01-10T03:13:02;6.10;99.90
13880;DHT22;7010;48.200;16.332;2023-01-10T03:15:34;6.10;99.90
13880;DHT22;7010;48.200;16.332;2023-01-10T03:18:07;6.10;99.90
13880;DHT22;7010;48.200;16.332;2023-01-10T03:20:41;6.10;99.90
13880;DHT22;7010;48.200;16.332;2023-01-10T03:23:13;6.10;99.90
13880;DHT22;7010;48.200;16.332;2023-01-10T03:25:44;6.10;99.90
13880;DHT22;7010;48.200;16.332;2023-01-10T03:28:16;6.10;99.90
13880;DHT22;7010;48.200;16.332;2023-01-10T03:30:49;6.00;99.90
13880;DHT22;7010;48.200;16.332;2023-01-10T03:33:22;6.00;99.90
13880;DHT22;7010;48.200;16.332;2023-01-10T03:36:00;6.00;99.90
13880;DHT22;7010;48.200;16.332;2023-01-10T03:38:38;5.90;99.90
13880;DHT22;7010;48.200;16.332;2023-01-10T03:41:12;5.90;99.90
13880;DHT22;7010;48.200;16.332;2023-01-10T03:43:46;5.90;99.90
13880;DHT22;7010;48.200;16.332;2023-01-10T03:46:36;5.90;99.90
13880;DHT22;7010;48.200;16.332;2023-01-10T03:49:08;5.90;99.90
13880;DHT22;7010;48.200;16.332;2023-01-10T03:51:39;5.90;99.90
13880;DHT22;7010;48.200;16.332;2023-01-10T03:54:08;5.90;99.90
13880;DHT22;7010;48.200;16.332;2023-01-10T03:56:44;5.80;99.90
13880;DHT22;7010;48.200;16.332;2023-01-10T03:59:13;5.80;99.90
13880;DHT22;7010;48.200;16.332;2023-01-10T04:01:41;5.80;99.90
13880;DHT22;7010;48.200;16.332;2023-01-10T04:04:10;5.80;99.90
13880;DHT22;7010;48.200;16.332;2023-01-10T04:06:39;5.80;99.90
13880;DHT22;7010;48.200;16.332;2023-01-10T04:09:09;5.70;99.90
13880;DHT22;7010;48.200;16.332;2023-01-10T04:11:37;5.70;99.90
13880;DHT22;7010;48.200;16.332;2023-01-10T04:14:05;5.70;99.90
13880;DHT22;7010;48.200;16.332;2023-01-10T04:16:34;5.70;99.90
13880;DHT22;7010;48.200;16.332;2023-01-10T04:19:02;5.70;99.90
13880;DHT22;7010;48.200;16.332;2023-01-10T04:21:30;5.70;99.90
13880;DHT22;7010;48.200;16.332;2023-01-10T04:24:00;5.70;99.90
13880;DHT22;7010;48.200;16.332;2023-01-10T04:26:28;5.60;99.90
13880;DHT22;7010;48.200;16.332;2023-01-10T04:28:57;5.60;99.90
13880;DHT22;7010;48.200;16.332;2023-01-10T04:31:25;5.60;99.90
13880;DHT22;7010;48.200;16.332;2023-01-10T04:33:53;5.60;99.90
13880;DHT22;7010;48.200;16.332;2023-01-10T04:36:21;5.60;99.90
13880;DHT22;7010;48.200;16.332;2023-01-10T04:38:50;5.60;99.90
13880;DHT22;7010;48.200;16.332;2023-01-10T04:41:19;5.60;99.90
13880;DHT22;7010;48.200;16.332;2023-01-10T04:43:48;5.60;99.90
13880;DHT22;7010;48.200;16.332;2023-01-10T04:46:16;5.60;99.90
13880;DHT22;7010;48.200;16.332;2023-01-10T04:48:45;5.60;99.90
13880;DHT22;7010;48.200;16.332;2023-01-10T04:51:13;5.50;99.90
13880;DHT22;7010;48.200;16.332;2023-01-10T04:53:41;5.50;99.90
13880;DHT22;7010;48.200;16.332;2023-01-10T04:56:15;5.50;99.90
13880;DHT22;7010;48.200;16.332;2023-01-10T04:58:45;5.50;99.90
13880;DHT22;7010;48.200;16.332;2023-01-10T05:01:15;5.50;99.90
13880;DHT22;7010;48.200;16.332;2023-01-10T05:03:46;5.50;99.90
13880;DHT22;7010;48.200;16.332;2023-01-10T05:06:15;5.50;99.90
13880;DHT22;7010;48.200;16.332;2023-01-10T05:08:44;5.50;99.90
13880;DHT22;7010;48.200;16.332;2023-01-10T05:11:12;5.50;99.90
13880;DHT22;7010;48.200;16.332;2023-01-10T05:13:41;5.50;99.90
13880;DHT22;7010;48.200;16.332;2023-01-10T05:16:11;5.50;99.90
13880;DHT22;7010;48.200;16.332;2023-01-10T05:18:39;5.50;99.90
13880;DHT22;7010;48.200;16.332;2023-01-10T05:21:09;5.50;99.90
13880;DHT22;7010;48.200;16.332;2023-01-10T05:23:38;5.50;99.90
13880;DHT22;7010;48.200;16.332;2023-01-10T05:26:08;5.50;99.90
13880;DHT22;7010;48.200;16.332;2023-01-10T05:28:37;5.50;99.90
13880;DHT22;7010;48.200;16.332;2023-01-10T05:31:05;5.50;99.90
13880;DHT22;7010;48.200;16.332;2023-01-10T05:33:36;5.60;99.90
13880;DHT22;7010;48.200;16.332;2023-01-10T05:36:06;5.60;99.90
13880;DHT22;7010;48.200;16.332;2023-01-10T05:38:34;5.60;99.90
13880;DHT22;7010;48.200;16.332;2023-01-10T05:41:02;5.60;99.90
13880;DHT22;7010;48.200;16.332;2023-01-10T05:43:31;5.60;99.90
13880;DHT22;7010;48.200;16.332;2023-01-10T05:45:59;5.60;99.90
13880;DHT22;7010;48.200;16.332;2023-01-10T05:48:28;5.60;99.90
13880;DHT22;7010;48.200;16.332;2023-01-10T05:50:57;5.60;99.90
13880;DHT22;7010;48.200;16.332;2023-01-10T05:53:26;5.60;99.90
13880;DHT22;7010;48.200;16.332;2023-01-10T05:55:55;5.60;99.90
13880;DHT22;7010;48.200;16.332;2023-01-10T05:58:24;5.60;99.90
13880;DHT22;7010;48.200;16.332;2023-01-10T06:00:53;5.60;99.90
13880;DHT22;7010;48.200;16.332;2023-01-10T06:03:22;5.60;99.90
13880;DHT22;7010;48.200;16.332;2023-01-10T06:05:52;5.70;99.90
13880;DHT22;7010;48.200;16.332;2023-01-10T06:08:23;5.70;99.90
13880;DHT22;7010;48.200;16.332;2023-01-10T06:10:51;5.70;99.90
13880;DHT22;7010;48.200;16.332;2023-01-10T06:13:19;5.60;99.90
13880;DHT22;7010;48.200;16.332;2023-01-10T06:15:48;5.60;99.90
13880;DHT22;7010;48.200;16.332;2023-01-10T06:18:16;5.60;99.90
13880;DHT22;7010;48.200;16.332;2023-01-10T06:20:44;5.60;99.90
13880;DHT22;7010;48.200;16.332;2023-01-10T06:23:12;5.60;99.90
13880;DHT22;7010;48.200;16.332;2023-01-10T06:25:42;5.70;99.90
13880;DHT22;7010;48.200;16.332;2023-01-10T06:28:12;5.60;99.90
13880;DHT22;7010;48.200;16.332;2023-01-10T06:30:41;5.60;99.90
13880;DHT22;7010;48.200;16.332;2023-01-10T06:33:10;5.70;99.90
13880;DHT22;7010;48.200;16.332;2023-01-10T06:35:39;5.60;99.90
13880;DHT22;7010;48.200;16.332;2023-01-10T06:38:07;5.60;99.90
13880;DHT22;7010;48.200;16.332;2023-01-10T06:40:35;5.60;99.90
13880;DHT22;7010;48.200;16.332;2023-01-10T06:43:05;5.60;99.90
13880;DHT22;7010;48.200;16.332;2023-01-10T06:45:33;5.60;99.90
13880;DHT22;7010;48.200;16.332;2023-01-10T06:48:02;5.60;99.90
13880;DHT22;7010;48.200;16.332;2023-01-10T06:50:30;5.60;99.90
13880;DHT22;7010;48.200;16.332;2023-01-10T06:53:00;5.60;99.90
13880;DHT22;7010;48.200;16.332;2023-01-10T06:55:29;5.60;99.90
13880;DHT22;7010;48.200;16.332;2023-01-10T06:57:59;5.60;99.90
13880;DHT22;7010;48.200;16.332;2023-01-10T07:00:29;5.60;99.90
13880;DHT22;7010;48.200;16.332;2023-01-10T07:02:59;5.50;99.90
13880;DHT22;7010;48.200;16.332;2023-01-10T07:05:27;5.60;99.90
13880;DHT22;7010;48.200;16.332;2023-01-10T07:07:56;5.60;99.90
13880;DHT22;7010;48.200;16.332;2023-01-10T07:10:27;5.60;99.90
13880;DHT22;7010;48.200;16.332;2023-01-10T07:12:56;5.60;99.90
13880;DHT22;7010;48.200;16.332;2023-01-10T07:15:25;5.60;99.90
13880;DHT22;7010;48.200;16.332;2023-01-10T07:17:56;5.70;99.90
13880;DHT22;7010;48.200;16.332;2023-01-10T07:20:25;5.70;99.90
13880;DHT22;7010;48.200;16.332;2023-01-10T07:22:54;5.70;99.90
13880;DHT22;7010;48.200;16.332;2023-01-10T07:25:23;5.70;99.90
13880;DHT22;7010;48.200;16.332;2023-01-10T07:27:51;5.70;99.90
13880;DHT22;7010;48.200;16.332;2023-01-10T07:30:21;5.80;99.90
13880;DHT22;7010;48.200;16.332;2023-01-10T07:32:55;5.70;99.90
13880;DHT22;7010;48.200;16.332;2023-01-10T07:35:24;5.80;99.90
13880;DHT22;7010;48.200;16.332;2023-01-10T07:37:52;5.80;99.90
13880;DHT22;7010;48.200;16.332;2023-01-10T07:40:21;5.90;99.90
13880;DHT22;7010;48.200;16.332;2023-01-10T07:42:49;5.90;99.90
13880;DHT22;7010;48.200;16.332;2023-01-10T07:45:17;5.90;99.90
13880;DHT22;7010;48.200;16.332;2023-01-10T07:47:45;5.90;99.90
13880;DHT22;7010;48.200;16.332;2023-01-10T07:50:15;6.00;99.90
13880;DHT22;7010;48.200;16.332;2023-01-10T07:52:44;6.00;99.90
13880;DHT22;7010;48.200;16.332;2023-01-10T07:55:13;6.00;99.90
13880;DHT22;7010;48.200;16.332;2023-01-10T07:57:41;6.10;99.90
13880;DHT22;7010;48.200;16.332;2023-01-10T08:00:11;6.10;99.90
13880;DHT22;7010;48.200;16.332;2023-01-10T08:02:39;6.10;99.90
13880;DHT22;7010;48.200;16.332;2023-01-10T08:05:08;6.00;99.90
13880;DHT22;7010;48.200;16.332;2023-01-10T08:07:38;6.00;99.90
13880;DHT22;7010;48.200;16.332;2023-01-10T08:10:07;6.00;99.90
13880;DHT22;7010;48.200;16.332;2023-01-10T08:12:36;6.00;99.90
13880;DHT22;7010;48.200;16.332;2023-01-10T08:15:05;6.00;99.90
13880;DHT22;7010;48.200;16.332;2023-01-10T08:17:34;6.10;99.90
13880;DHT22;7010;48.200;16.332;2023-01-10T08:20:02;6.10;99.90
13880;DHT22;7010;48.200;16.332;2023-01-10T08:22:31;6.00;99.90
13880;DHT22;7010;48.200;16.332;2023-01-10T08:25:00;6.00;99.90
13880;DHT22;7010;48.200;16.332;2023-01-10T08:27:29;6.10;99.90
13880;DHT22;7010;48.200;16.332;2023-01-10T08:29:57;6.10;99.90
13880;DHT22;7010;48.200;16.332;2023-01-10T08:32:25;6.10;99.90
13880;DHT22;7010;48.200;16.332;2023-01-10T08:34:53;6.10;99.90
13880;DHT22;7010;48.200;16.332;2023-01-10T08:37:22;6.10;99.90
13880;DHT22;7010;48.200;16.332;2023-01-10T08:39:50;6.20;99.90
13880;DHT22;7010;48.200;16.332;2023-01-10T08:42:20;6.10;99.90
13880;DHT22;7010;48.200;16.332;2023-01-10T08:44:48;6.20;99.90
13880;DHT22;7010;48.200;16.332;2023-01-10T08:47:17;6.20;99.90
13880;DHT22;7010;48.200;16.332;2023-01-10T08:49:45;6.20;99.90
13880;DHT22;7010;48.200;16.332;2023-01-10T08:52:15;6.30;99.90
13880;DHT22;7010;48.200;16.332;2023-01-10T08:54:43;6.30;99.90
13880;DHT22;7010;48.200;16.332;2023-01-10T08:57:12;6.40;99.90
13880;DHT22;7010;48.200;16.332;2023-01-10T08:59:42;6.40;99.90
13880;DHT22;7010;48.200;16.332;2023-01-10T09:02:11;6.50;99.90
13880;DHT22;7010;48.200;16.332;2023-01-10T09:04:40;6.50;99.90
13880;DHT22;7010;48.200;16.332;2023-01-10T09:07:08;6.50;99.90
13880;DHT22;7010;48.200;16.332;2023-01-10T09:09:36;6.60;99.90
13880;DHT22;7010;48.200;16.332;2023-01-10T09:12:05;6.60;99.90
13880;DHT22;7010;48.200;16.332;2023-01-10T09:14:54;6.60;99.90
13880;DHT22;7010;48.200;16.332;2023-01-10T09:17:23;6.60;99.90
13880;DHT22;7010;48.200;16.332;2023-01-10T09:19:51;6.70;99.90
13880;DHT22;7010;48.200;16.332;2023-01-10T09:22:21;6.70;99.90
13880;DHT22;7010;48.200;16.332;2023-01-10T09:24:50;6.70;99.90
13880;DHT22;7010;48.200;16.332;2023-01-10T09:27:18;6.80;99.90
13880;DHT22;7010;48.200;16.332;2023-01-10T09:29:46;6.80;99.90
13880;DHT22;7010;48.200;16.332;2023-01-10T09:32:16;6.80;99.90
13880;DHT22;7010;48.200;16.332;2023-01-10T09:34:45;6.90;99.90
13880;DHT22;7010;48.200;16.332;2023-01-10T09:37:13;6.90;99.90
13880;DHT22;7010;48.200;16.332;2023-01-10T09:39:42;6.90;99.90
13880;DHT22;7010;48.200;16.332;2023-01-10T09:42:23;6.90;99.90
13880;DHT22;7010;48.200;16.332;2023-01-10T09:45:02;6.90;99.90
13880;DHT22;7010;48.200;16.332;2023-01-10T09:47:38;7.00;99.90
13880;DHT22;7010;48.200;16.332;2023-01-10T09:50:15;7.00;99.90
13880;DHT22;7010;48.200;16.332;2023-01-10T09:52:48;7.00;99.90
13880;DHT22;7010;48.200;16.332;2023-01-10T09:55:24;7.00;99.90
13880;DHT22;7010;48.200;16.332;2023-01-10T09:57:54;7.00;99.90
13880;DHT22;7010;48.200;16.332;2023-01-10T10:00:30;7.10;99.90
13880;DHT22;7010;48.200;16.332;2023-01-10T10:03:04;7.10;99.90
13880;DHT22;7010;48.200;16.332;2023-01-10T10:05:38;7.10;99.90
13880;DHT22;7010;48.200;16.332;2023-01-10T10:08:12;7.10;99.90
13880;DHT22;7010;48.200;16.332;2023-01-10T10:10:54;7.20;99.90
13880;DHT22;7010;48.200;16.332;2023-01-10T10:13:35;7.20;99.90
13880;DHT22;7010;48.200;16.332;2023-01-10T10:16:11;7.30;99.90
13880;DHT22;7010;48.200;16.332;2023-01-10T10:18:48;7.30;99.90
13880;DHT22;7010;48.200;16.332;2023-01-10T10:21:30;7.30;99.90
13880;DHT22;7010;48.200;16.332;2023-01-10T10:24:17;7.30;99.90
13880;DHT22;7010;48.200;16.332;2023-01-10T10:26:54;7.30;99.90
13880;DHT22;7010;48.200;16.332;2023-01-10T10:29:39;7.30;99.90
13880;DHT22;7010;48.200;16.332;2023-01-10T10:32:34;7.40;99.90
13880;DHT22;7010;48.200;16.332;2023-01-10T10:35:11;7.40;99.90
13880;DHT22;7010;48.200;16.332;2023-01-10T10:37:42;7.50;99.90
13880;DHT22;7010;48.200;16.332;2023-01-10T10:40:17;7.50;99.90
13880;DHT22;7010;48.200;16.332;2023-01-10T10:42:48;7.60;99.90
13880;DHT22;7010;48.200;16.332;2023-01-10T10:45:19;7.60;99.90
13880;DHT22;7010;48.200;16.332;2023-01-10T10:47:56;7.60;99.90
13880;DHT22;7010;48.200;16.332;2023-01-10T10:50:31;7.70;99.90
13880;DHT22;7010;48.200;16.332;2023-01-10T10:53:01;7.60;99.90
13880;DHT22;7010;48.200;16.332;2023-01-10T10:55:32;7.70;99.90
13880;DHT22;7010;48.200;16.332;2023-01-10T10:58:01;7.80;99.90
13880;DHT22;7010;48.200;16.332;2023-01-10T11:00:30;7.90;99.90
13880;DHT22;7010;48.200;16.332;2023-01-10T11:03:02;7.80;99.90
13880;DHT22;7010;48.200;16.332;2023-01-10T11:05:37;7.90;99.90
13880;DHT22;7010;48.200;16.332;2023-01-10T11:08:08;8.00;99.90
13880;DHT22;7010;48.200;16.332;2023-01-10T11:10:38;8.00;99.90
13880;DHT22;7010;48.200;16.332;2023-01-10T11:13:15;8.10;99.90
13880;DHT22;7010;48.200;16.332;2023-01-10T11:15:46;8.20;99.90
13880;DHT22;7010;48.200;16.332;2023-01-10T11:18:16;8.30;99.90
13880;DHT22;7010;48.200;16.332;2023-01-10T11:20:50;8.30;99.90
13880;DHT22;7010;48.200;16.332;2023-01-10T11:23:35;8.40;99.90
13880;DHT22;7010;48.200;16.332;2023-01-10T11:26:04;8.40;99.90
13880;DHT22;7010;48.200;16.332;2023-01-10T11:28:34;8.40;99.90
13880;DHT22;7010;48.200;16.332;2023-01-10T11:31:03;8.40;99.90
13880;DHT22;7010;48.200;16.332;2023-01-10T11:33:33;8.40;99.90
13880;DHT22;7010;48.200;16.332;2023-01-10T11:36:05;8.30;99.90
13880;DHT22;7010;48.200;16.332;2023-01-10T11:38:35;8.20;99.90
13880;DHT22;7010;48.200;16.332;2023-01-10T11:41:04;8.20;99.90
13880;DHT22;7010;48.200;16.332;2023-01-10T11:43:34;8.30;99.90
13880;DHT22;7010;48.200;16.332;2023-01-10T11:46:04;8.40;99.90
13880;DHT22;7010;48.200;16.332;2023-01-10T11:48:42;8.30;99.90
13880;DHT22;7010;48.200;16.332;2023-01-10T11:51:36;8.30;99.90
13880;DHT22;7010;48.200;16.332;2023-01-10T11:54:08;8.40;99.90
13880;DHT22;7010;48.200;16.332;2023-01-10T11:56:38;8.50;99.90
13880;DHT22;7010;48.200;16.332;2023-01-10T11:59:08;8.60;99.90
13880;DHT22;7010;48.200;16.332;2023-01-10T12:01:41;8.80;99.90
13880;DHT22;7010;48.200;16.332;2023-01-10T12:04:13;9.00;99.90
13880;DHT22;7010;48.200;16.332;2023-01-10T12:06:46;9.20;99.90
13880;DHT22;7010;48.200;16.332;2023-01-10T12:09:39;9.20;99.90
13880;DHT22;7010;48.200;16.332;2023-01-10T12:12:17;9.40;99.90
13880;DHT22;7010;48.200;16.332;2023-01-10T12:14:46;9.60;99.90
13880;DHT22;7010;48.200;16.332;2023-01-10T12:17:23;9.80;99.90
13880;DHT22;7010;48.200;16.332;2023-01-10T12:19:53;9.70;99.90
13880;DHT22;7010;48.200;16.332;2023-01-10T12:22:29;9.90;99.90
13880;DHT22;7010;48.200;16.332;2023-01-10T12:24:59;10.00;99.90
13880;DHT22;7010;48.200;16.332;2023-01-10T12:27:28;10.00;99.90
13880;DHT22;7010;48.200;16.332;2023-01-10T12:30:03;10.20;99.90
13880;DHT22;7010;48.200;16.332;2023-01-10T12:32:37;10.30;99.90
13880;DHT22;7010;48.200;16.332;2023-01-10T12:35:13;10.40;99.90
13880;DHT22;7010;48.200;16.332;2023-01-10T12:37:47;10.60;99.90
13880;DHT22;7010;48.200;16.332;2023-01-10T12:40:22;10.50;99.90
13880;DHT22;7010;48.200;16.332;2023-01-10T12:42:56;10.60;99.90
13880;DHT22;7010;48.200;16.332;2023-01-10T12:45:45;10.80;99.90
13880;DHT22;7010;48.200;16.332;2023-01-10T12:48:21;11.20;99.90
13880;DHT22;7010;48.200;16.332;2023-01-10T12:50:54;11.20;99.90
13880;DHT22;7010;48.200;16.332;2023-01-10T12:53:31;11.20;99.90
13880;DHT22;7010;48.200;16.332;2023-01-10T12:56:02;11.20;99.90
13880;DHT22;7010;48.200;16.332;2023-01-10T12:58:39;11.00;99.90
13880;DHT22;7010;48.200;16.332;2023-01-10T13:01:12;10.80;99.90
13880;DHT22;7010;48.200;16.332;2023-01-10T13:03:42;10.70;99.90
13880;DHT22;7010;48.200;16.332;2023-01-10T13:06:15;10.80;99.90
13880;DHT22;7010;48.200;16.332;2023-01-10T13:08:49;11.20;99.90
13880;DHT22;7010;48.200;16.332;2023-01-10T13:11:18;11.30;99.90
13880;DHT22;7010;48.200;16.332;2023-01-10T13:13:51;11.40;99.90
13880;DHT22;7010;48.200;16.332;2023-01-10T13:16:34;11.30;99.90
13880;DHT22;7010;48.200;16.332;2023-01-10T13:19:17;10.80;99.90
13880;DHT22;7010;48.200;16.332;2023-01-10T13:21:49;10.60;99.90
13880;DHT22;7010;48.200;16.332;2023-01-10T13:24:22;10.70;99.90
13880;DHT22;7010;48.200;16.332;2023-01-10T13:26:53;10.90;99.90
13880;DHT22;7010;48.200;16.332;2023-01-10T13:29:24;10.90;99.90
13880;DHT22;7010;48.200;16.332;2023-01-10T13:32:00;10.40;99.90
13880;DHT22;7010;48.200;16.332;2023-01-10T13:34:32;10.10;99.90
13880;DHT22;7010;48.200;16.332;2023-01-10T13:37:03;9.80;99.90
13880;DHT22;7010;48.200;16.332;2023-01-10T13:39:40;9.50;99.90
13880;DHT22;7010;48.200;16.332;2023-01-10T13:42:29;9.30;99.90
13880;DHT22;7010;48.200;16.332;2023-01-10T13:45:26;9.20;99.90
13880;DHT22;7010;48.200;16.332;2023-01-10T13:51:12;8.90;99.90
13880;DHT22;7010;48.200;16.332;2023-01-10T13:53:53;8.80;99.90
13880;DHT22;7010;48.200;16.332;2023-01-10T13:56:33;8.70;99.90
13880;DHT22;7010;48.200;16.332;2023-01-10T13:59:03;8.60;99.90
13880;DHT22;7010;48.200;16.332;2023-01-10T14:01:50;8.50;99.90
13880;DHT22;7010;48.200;16.332;2023-01-10T14:04:38;8.40;99.90
13880;DHT22;7010;48.200;16.332;2023-01-10T14:07:18;8.40;99.90
13880;DHT22;7010;48.200;16.332;2023-01-10T14:09:49;8.40;99.90
13880;DHT22;7010;48.200;16.332;2023-01-10T14:12:26;8.30;99.90
13880;DHT22;7010;48.200;16.332;2023-01-10T14:14:58;8.30;99.90
13880;DHT22;7010;48.200;16.332;2023-01-10T14:17:28;8.20;99.90
13880;DHT22;7010;48.200;16.332;2023-01-10T14:20:03;8.20;99.90
13880;DHT22;7010;48.200;16.332;2023-01-10T14:22:34;8.20;99.90
13880;DHT22;7010;48.200;16.332;2023-01-10T14:25:06;8.20;99.90
13880;DHT22;7010;48.200;16.332;2023-01-10T14:27:44;8.10;99.90
13880;DHT22;7010;48.200;16.332;2023-01-10T14:30:19;8.00;99.90
13880;DHT22;7010;48.200;16.332;2023-01-10T14:32:49;7.90;99.90
13880;DHT22;7010;48.200;16.332;2023-01-10T14:35:26;7.90;99.90
13880;DHT22;7010;48.200;16.332;2023-01-10T14:37:56;7.90;99.90
13880;DHT22;7010;48.200;16.332;2023-01-10T14:40:28;7.90;99.90
13880;DHT22;7010;48.200;16.332;2023-01-10T14:43:04;7.80;99.90
13880;DHT22;7010;48.200;16.332;2023-01-10T14:45:38;7.90;99.90
13880;DHT22;7010;48.200;16.332;2023-01-10T14:48:28;7.80;99.90
13880;DHT22;7010;48.200;16.332;2023-01-10T14:51:16;7.80;99.90
13880;DHT22;7010;48.200;16.332;2023-01-10T14:53:47;7.80;99.90
13880;DHT22;7010;48.200;16.332;2023-01-10T14:56:23;7.80;99.90
13880;DHT22;7010;48.200;16.332;2023-01-10T14:58:53;7.70;99.90
13880;DHT22;7010;48.200;16.332;2023-01-10T15:01:24;7.70;99.90
13880;DHT22;7010;48.200;16.332;2023-01-10T15:03:54;7.60;99.90
13880;DHT22;7010;48.200;16.332;2023-01-10T15:06:23;7.60;99.90
13880;DHT22;7010;48.200;16.332;2023-01-10T15:08:56;7.60;99.90
13880;DHT22;7010;48.200;16.332;2023-01-10T15:11:25;7.50;99.90
13880;DHT22;7010;48.200;16.332;2023-01-10T15:14:00;7.50;99.90
13880;DHT22;7010;48.200;16.332;2023-01-10T15:16:30;7.50;99.90
13880;DHT22;7010;48.200;16.332;2023-01-10T15:18:59;7.50;99.90
13880;DHT22;7010;48.200;16.332;2023-01-10T15:21:27;7.50;99.90
13880;DHT22;7010;48.200;16.332;2023-01-10T15:23:56;7.50;99.90
13880;DHT22;7010;48.200;16.332;2023-01-10T15:26:27;7.50;99.90
13880;DHT22;7010;48.200;16.332;2023-01-10T15:29:10;7.50;99.90
13880;DHT22;7010;48.200;16.332;2023-01-10T15:31:39;7.50;99.90
13880;DHT22;7010;48.200;16.332;2023-01-10T15:34:10;7.50;99.90
13880;DHT22;7010;48.200;16.332;2023-01-10T15:36:44;7.40;99.90
13880;DHT22;7010;48.200;16.332;2023-01-10T15:39:18;7.30;99.90
13880;DHT22;7010;48.200;16.332;2023-01-10T15:41:47;7.30;99.90
13880;DHT22;7010;48.200;16.332;2023-01-10T15:44:38;7.30;99.90
13880;DHT22;7010;48.200;16.332;2023-01-10T15:47:30;7.30;99.90
13880;DHT22;7010;48.200;16.332;2023-01-10T15:50:01;7.20;99.90
13880;DHT22;7010;48.200;16.332;2023-01-10T15:52:30;7.30;99.90
13880;DHT22;7010;48.200;16.332;2023-01-10T15:54:58;7.30;99.90
13880;DHT22;7010;48.200;16.332;2023-01-10T15:57:29;7.30;99.90
13880;DHT22;7010;48.200;16.332;2023-01-10T16:00:03;7.30;99.90
13880;DHT22;7010;48.200;16.332;2023-01-10T16:02:31;7.30;99.90
13880;DHT22;7010;48.200;16.332;2023-01-10T16:05:07;7.30;99.90
13880;DHT22;7010;48.200;16.332;2023-01-10T16:07:42;7.30;99.90
13880;DHT22;7010;48.200;16.332;2023-01-10T16:10:17;7.30;99.90
13880;DHT22;7010;48.200;16.332;2023-01-10T16:12:47;7.30;99.90
13880;DHT22;7010;48.200;16.332;2023-01-10T16:15:35;7.30;99.90
13880;DHT22;7010;48.200;16.332;2023-01-10T16:18:04;7.30;99.90
13880;DHT22;7010;48.200;16.332;2023-01-10T16:20:35;7.30;99.90
13880;DHT22;7010;48.200;16.332;2023-01-10T16:23:04;7.30;99.90
13880;DHT22;7010;48.200;16.332;2023-01-10T16:25:36;7.20;99.90
13880;DHT22;7010;48.200;16.332;2023-01-10T16:28:05;7.30;99.90